Flight Track Log - Related Links

Times and Time Zones

All times are in EDT time to prevent confusion due to time zone crossing. See the KAP291 flight status page for this flight to view local times or setup timezone preferences in your user account.

Time Position Orientation Groundspeed Altitude Reporting Facility
EDT Latitude Longitude Course Direction KTS MPH feet Rate Location/Type
Thu 05:27:02 PM 42.3667 -70.9833 132° Southeast 84 97 500  Level KA90
Thu 05:28:26 PM 42.3333 -70.9333 132° Southeast 126 145 1,200 500 Climbing KA90
Thu 05:29:26 PM 42.3167 -70.8833 114° Southeast 126 145 1,700 550 Climbing KA90
Thu 05:30:26 PM 42.3000 -70.8500 124° Southeast 123 142 2,300 650 Climbing KA90
Thu 05:31:26 PM 42.2667 -70.8333 160° South 113 130 3,000 650 Climbing KA90
Thu 05:32:26 PM 42.2333 -70.8333 180° South 115 132 3,600 600 Climbing KA90
Thu 05:33:26 PM 42.2000 -70.8167 160° South 118 136 4,200 550 Climbing KA90
Thu 05:34:26 PM 42.1667 -70.8167 180° South 120 138 4,700 400 Climbing KA90
Thu 05:35:26 PM 42.1333 -70.8000 160° South 134 154 5,000 158 Climbing KA90
Thu 05:36:20 PM 42.1000 -70.8000 180° South 153 176 5,000  Level KA90
Thu 05:38:00 PM 42.0440 -70.8062 185° South  Level FlightAware Approximate
Thu 05:45:00 PM 41.8134 -70.7376 161° South  Level Estimated
Thu 05:46:00 PM 41.7797 -70.7358 178° South  Level FlightAware Approximate
Thu 05:47:00 PM 41.7460 -70.7340 178° South  Level FlightAware Approximate
Thu 05:48:00 PM 41.7133 -70.7228 164° South  Level Estimated
Thu 05:49:00 PM 41.6807 -70.7114 165° South  Level FlightAware Approximate
Thu 05:50:00 PM 41.6480 -70.7001 165° South  Level FlightAware Approximate
Thu 05:51:00 PM 41.6154 -70.6887 165° South  Level FlightAware Approximate
Thu 05:52:00 PM 41.5827 -70.6776 164° South  Level Estimated
Thu 05:53:00 PM 41.5502 -70.6652 164° South  Level FlightAware Approximate
Thu 05:54:00 PM 41.5178 -70.6528 164° South  Level FlightAware Approximate
Thu 05:55:00 PM 41.4854 -70.6405 164° South  Level FlightAware Approximate
Thu 05:56:00 PM 41.4524 -70.6309 163° South  Level Estimated
Thu 05:57:00 PM 41.4204 -70.6166 161° South  Level FlightAware Approximate
Thu 05:58:00 PM 41.3934 -70.6139 163° South  Level Estimated
Thu 05:59:00 PM 41.3934 -70.6139 163° South  Level Estimated
Thu 06:00:00 PM 41.3934 -70.6139 163° South  Level Estimated
Thu 06:01:00 PM 41.3934 -70.6139 163° South  Level Estimated
Thu 06:02:00 PM 41.3934 -70.6139 163° South  Level Estimated

Login

Don't have an account? Register now (free) for customized features, flight alerts, and more!